createdAt,value
2018-05-14T00:00:19.681Z,12.2
2018-05-14T00:01:09.751Z,12.2
2018-05-14T00:01:59.821Z,12.2
2018-05-14T00:02:49.607Z,12.2
2018-05-14T00:03:39.829Z,12.2
2018-05-14T00:04:29.433Z,12.2
2018-05-14T00:05:19.816Z,12.3
2018-05-14T00:06:10.142Z,12.3
2018-05-14T00:06:59.912Z,12.3
2018-05-14T00:07:50.260Z,12.3
2018-05-14T00:08:40.050Z,12.3
2018-05-14T00:09:30.108Z,12.3
2018-05-14T00:10:20.459Z,12.3
2018-05-14T00:11:10.236Z,12.3
2018-05-14T00:12:00.560Z,12.3
2018-05-14T00:12:50.650Z,12.3
2018-05-14T00:13:40.679Z,12.3
2018-05-14T00:14:30.752Z,12.3
2018-05-14T00:15:19.981Z,12.3
2018-05-14T00:16:10.861Z,12.3
2018-05-14T00:17:00.936Z,12.3
2018-05-14T00:17:51.004Z,12.3
2018-05-14T00:18:41.071Z,12.3
2018-05-14T00:19:31.131Z,12.3
2018-05-14T00:20:21.201Z,12.3
2018-05-14T00:21:11.251Z,12.3
2018-05-14T00:22:01.023Z,12.4
2018-05-14T00:22:51.095Z,12.4
2018-05-14T00:23:41.161Z,12.4
2018-05-14T00:24:31.595Z,12.4
2018-05-14T00:25:21.308Z,12.4
2018-05-14T00:26:11.646Z,12.4
2018-05-14T00:27:01.703Z,12.4
2018-05-14T00:27:51.460Z,12.4
2018-05-14T00:28:41.818Z,12.4
2018-05-14T00:29:31.883Z,12.4
2018-05-14T00:30:21.948Z,12.4
2018-05-14T00:31:12.002Z,12.4
2018-05-14T00:32:02.097Z,12.4
2018-05-14T00:32:52.128Z,12.4
2018-05-14T00:33:41.965Z,12.4
2018-05-14T00:34:31.969Z,12.4
2018-05-14T00:35:22.345Z,12.4
2018-05-14T00:36:12.086Z,12.4
2018-05-14T00:37:01.985Z,12.4
2018-05-14T00:37:52.494Z,12.4
2018-05-14T00:38:42.600Z,12.4
2018-05-14T00:39:32.633Z,12.4
2018-05-14T00:40:22.715Z,12.4
2018-05-14T00:41:12.779Z,12.4
2018-05-14T00:42:02.819Z,12.4
2018-05-14T00:42:52.315Z,12.4
2018-05-14T00:43:42.659Z,12.4
2018-05-14T00:44:33.014Z,12.4
2018-05-14T00:45:23.084Z,12.5
2018-05-14T00:46:13.130Z,12.5
2018-05-14T00:47:03.196Z,12.4
2018-05-14T00:47:52.969Z,12.5
2018-05-14T00:48:43.313Z,12.5
2018-05-14T00:49:34.129Z,12.5
2018-05-14T00:50:23.476Z,12.5
2018-05-14T00:51:13.513Z,12.5
2018-05-14T00:52:03.281Z,12.5
2018-05-14T00:52:53.359Z,12.5
2018-05-14T00:53:43.703Z,12.5
2018-05-14T00:54:33.758Z,12.5
2018-05-14T00:55:23.556Z,12.5
2018-05-14T00:56:13.598Z,12.6
2018-05-14T00:57:03.941Z,12.5
2018-05-14T00:57:54.006Z,12.5
2018-05-14T00:58:43.503Z,12.5
2018-05-14T00:59:34.118Z,12.6
2018-05-14T01:00:24.203Z,12.5
2018-05-14T01:01:14.265Z,12.5
2018-05-14T01:02:04.352Z,12.5
2018-05-14T01:02:54.383Z,12.6
2018-05-14T01:03:44.175Z,12.5
2018-05-14T01:04:34.530Z,12.6
2018-05-14T01:05:24.585Z,12.5
2018-05-14T01:06:14.350Z,12.5
2018-05-14T01:07:04.685Z,12.6
2018-05-14T01:07:54.748Z,12.6
2018-05-14T01:08:44.817Z,12.6
2018-05-14T01:09:34.604Z,12.6
2018-05-14T01:10:24.672Z,12.6
2018-05-14T01:11:15.005Z,12.6
2018-05-14T01:12:05.082Z,12.6
2018-05-14T01:12:55.132Z,12.6
2018-05-14T01:13:44.913Z,12.6
2018-05-14T01:14:35.260Z,12.6
2018-05-14T01:15:25.039Z,12.6
2018-05-14T01:16:15.387Z,12.6
2018-05-14T01:17:05.462Z,12.6
2018-05-14T01:17:55.261Z,12.6
2018-05-14T01:18:45.668Z,12.6
2018-05-14T01:19:35.361Z,12.6
2018-05-14T01:20:25.694Z,12.6
2018-05-14T01:21:15.779Z,12.6
2018-05-14T01:22:05.584Z,12.6
2018-05-14T01:22:55.886Z,12.6
2018-05-14T01:23:45.975Z,12.6
2018-05-14T01:24:36.093Z,12.5
2018-05-14T01:25:26.071Z,12.6
2018-05-14T01:26:16.151Z,12.6
2018-05-14T01:27:05.674Z,12.6
2018-05-14T01:27:56.281Z,12.6
2018-05-14T01:28:46.419Z,12.5
2018-05-14T01:29:35.827Z,12.5
2018-05-14T01:30:26.173Z,12.6
2018-05-14T01:31:16.519Z,12.6
2018-05-14T01:32:06.299Z,12.5
2018-05-14T01:32:56.733Z,12.5
2018-05-14T01:33:46.449Z,12.5
2018-05-14T01:34:36.823Z,12.6
2018-05-14T01:35:26.827Z,12.5
2018-05-14T01:36:16.703Z,12.6
2018-05-14T01:37:06.392Z,12.6
2018-05-14T01:37:56.721Z,12.6
2018-05-14T01:38:47.078Z,12.6
2018-05-14T01:39:37.143Z,12.5
2018-05-14T01:40:26.918Z,12.6
2018-05-14T01:41:17.298Z,12.5
2018-05-14T01:42:07.323Z,12.6
2018-05-14T01:42:57.391Z,12.5
2018-05-14T01:43:47.561Z,12.6
2018-05-14T01:44:37.524Z,12.5
2018-05-14T01:45:27.588Z,12.5
2018-05-14T01:46:17.667Z,12.5
2018-05-14T01:47:07.144Z,12.5
2018-05-14T01:47:57.531Z,12.5
2018-05-14T01:48:47.841Z,12.5
2018-05-14T01:49:37.928Z,12.5
2018-05-14T01:50:27.985Z,12.5
2018-05-14T01:51:18.038Z,12.4
2018-05-14T01:52:07.537Z,12.5
2018-05-14T01:52:57.896Z,12.5
2018-05-14T01:53:48.204Z,12.5
2018-05-14T01:54:37.807Z,12.5
2018-05-14T01:55:28.337Z,12.5
2018-05-14T01:56:18.400Z,12.5
2018-05-14T01:57:08.444Z,12.5
2018-05-14T01:57:58.242Z,12.5
2018-05-14T01:58:48.592Z,12.5
2018-05-14T01:59:38.655Z,12.5
2018-05-14T02:00:28.753Z,12.5
2018-05-14T02:01:18.217Z,12.5
2018-05-14T02:02:08.829Z,12.5
2018-05-14T02:02:58.884Z,12.5
2018-05-14T02:03:48.706Z,12.5
2018-05-14T02:04:39.009Z,12.4
2018-05-14T02:05:28.802Z,12.5
2018-05-14T02:06:19.125Z,12.5
2018-05-14T02:07:09.199Z,12.5
2018-05-14T02:07:58.966Z,12.5
2018-05-14T02:08:49.329Z,12.4
2018-05-14T02:09:39.090Z,12.4
2018-05-14T02:10:29.455Z,12.4
2018-05-14T02:11:19.248Z,12.4
2018-05-14T02:12:09.589Z,12.4
2018-05-14T02:12:59.643Z,12.4
2018-05-14T02:13:49.711Z,12.4
2018-05-14T02:14:39.515Z,12.4
2018-05-14T02:15:29.571Z,12.4
2018-05-14T02:16:19.909Z,12.4
2018-05-14T02:17:09.963Z,12.5
2018-05-14T02:18:00.023Z,12.4
2018-05-14T02:18:50.090Z,12.5
2018-05-14T02:19:39.858Z,12.4
2018-05-14T02:20:30.211Z,12.4
2018-05-14T02:21:20.275Z,12.4
2018-05-14T02:22:10.328Z,12.4
2018-05-14T02:23:00.124Z,12.4
2018-05-14T02:23:50.466Z,12.4
2018-05-14T02:24:40.537Z,12.4
2018-05-14T02:25:30.769Z,12.4
2018-05-14T02:26:20.643Z,12.4
2018-05-14T02:27:10.433Z,12.4
2018-05-14T02:28:00.800Z,12.4
2018-05-14T02:28:50.890Z,12.5
2018-05-14T02:29:40.636Z,12.5
2018-05-14T02:30:30.695Z,12.5
2018-05-14T02:31:21.033Z,12.5
2018-05-14T02:32:11.088Z,12.5
2018-05-14T02:33:00.881Z,12.5
2018-05-14T02:33:50.935Z,12.5
2018-05-14T02:34:40.732Z,12.5
2018-05-14T02:35:31.323Z,12.5
2018-05-14T02:36:21.404Z,12.5
2018-05-14T02:37:11.195Z,12.5
2018-05-14T02:38:01.546Z,12.5
2018-05-14T02:38:51.302Z,12.4
2018-05-14T02:39:41.639Z,12.5
2018-05-14T02:40:31.732Z,12.5
2018-05-14T02:41:21.254Z,12.4
2018-05-14T02:42:11.579Z,12.4
2018-05-14T02:43:01.949Z,12.5
2018-05-14T02:43:51.999Z,12.4
2018-05-14T02:44:42.027Z,12.4
2018-05-14T02:45:32.109Z,12.4
2018-05-14T02:46:22.149Z,12.4
2018-05-14T02:47:11.928Z,12.5
2018-05-14T02:48:02.030Z,12.4
2018-05-14T02:48:52.072Z,12.4
2018-05-14T02:49:42.399Z,12.4
2018-05-14T02:50:32.484Z,12.4
2018-05-14T02:51:22.524Z,12.4
2018-05-14T02:52:12.600Z,12.4
2018-05-14T02:53:02.662Z,12.4
2018-05-14T02:53:52.733Z,12.4
2018-05-14T02:54:42.769Z,12.4
2018-05-14T02:55:32.868Z,12.4
2018-05-14T02:56:22.918Z,12.4
2018-05-14T02:57:12.974Z,12.4
2018-05-14T02:58:03.020Z,12.4
2018-05-14T02:58:53.182Z,12.4
2018-05-14T02:59:43.155Z,12.4
2018-05-14T03:00:33.236Z,12.4
2018-05-14T03:01:23.303Z,12.4
2018-05-14T03:02:13.354Z,12.4
2018-05-14T03:03:02.839Z,12.4
2018-05-14T03:03:53.466Z,12.4
2018-05-14T03:04:43.270Z,12.4
2018-05-14T03:05:33.019Z,12.4
2018-05-14T03:06:23.645Z,12.4
2018-05-14T03:07:13.437Z,12.4
2018-05-14T03:08:03.218Z,12.4
2018-05-14T03:08:53.646Z,12.4
2018-05-14T03:09:43.910Z,12.4
2018-05-14T03:10:34.736Z,12.4
2018-05-14T03:11:24.038Z,12.4
2018-05-14T03:12:13.789Z,12.4
2018-05-14T03:13:03.608Z,12.4
2018-05-14T03:13:53.677Z,12.4
2018-05-14T03:14:44.283Z,12.4
2018-05-14T03:15:34.053Z,12.4
2018-05-14T03:16:24.402Z,12.4
2018-05-14T03:17:14.449Z,12.4
2018-05-14T03:18:04.533Z,12.4
2018-05-14T03:18:54.590Z,12.4
2018-05-14T03:19:44.639Z,12.4
2018-05-14T03:20:34.172Z,12.4
2018-05-14T03:21:24.764Z,12.4
2018-05-14T03:22:14.861Z,12.4
2018-05-14T03:23:04.877Z,12.4
2018-05-14T03:23:54.944Z,12.4
2018-05-14T03:24:44.734Z,12.4
2018-05-14T03:25:35.097Z,12.4
2018-05-14T03:26:25.144Z,12.4
2018-05-14T03:27:14.937Z,12.4
2018-05-14T03:28:04.979Z,12.4
2018-05-14T03:28:55.054Z,12.5
2018-05-14T03:29:45.404Z,12.4
2018-05-14T03:30:34.911Z,12.4
2018-05-14T03:31:25.536Z,12.4
2018-05-14T03:32:15.311Z,12.4
2018-05-14T03:33:05.652Z,12.4
2018-05-14T03:33:55.711Z,12.4
2018-05-14T03:34:45.796Z,12.5
2018-05-14T03:35:35.827Z,12.5
2018-05-14T03:36:25.892Z,12.5
2018-05-14T03:37:15.400Z,12.5
2018-05-14T03:38:06.039Z,12.5
2018-05-14T03:38:56.074Z,12.5
2018-05-14T03:39:46.141Z,12.6
2018-05-14T03:40:36.212Z,12.6
2018-05-14T03:41:26.279Z,12.6
2018-05-14T03:42:16.333Z,12.6
2018-05-14T03:43:06.390Z,12.6
2018-05-14T03:43:56.191Z,12.6
2018-05-14T03:44:46.505Z,12.6
2018-05-14T03:45:36.298Z,12.6
2018-05-14T03:46:26.643Z,12.7
2018-05-14T03:47:16.708Z,12.7
2018-05-14T03:48:06.495Z,12.7
2018-05-14T03:48:56.838Z,12.7
2018-05-14T03:49:46.619Z,12.8
2018-05-14T03:50:36.961Z,12.8
2018-05-14T03:51:27.039Z,12.8
2018-05-14T03:52:17.077Z,12.8
2018-05-14T03:53:07.135Z,12.8
2018-05-14T03:53:56.940Z,12.8
2018-05-14T03:54:47.287Z,12.9
2018-05-14T03:55:37.341Z,12.9
2018-05-14T03:56:27.122Z,12.9
2018-05-14T03:57:17.488Z,12.9
2018-05-14T03:58:07.528Z,12.9
2018-05-14T03:58:57.315Z,13
2018-05-14T03:59:47.113Z,13
2018-05-14T04:00:37.166Z,13.1
2018-05-14T04:01:27.488Z,13.1
2018-05-14T04:02:18.155Z,13.1
2018-05-14T04:03:07.445Z,13.1
2018-05-14T04:03:57.699Z,13.1
2018-05-14T04:04:47.759Z,13.2
2018-05-14T04:05:38.095Z,13.2
2018-05-14T04:06:27.900Z,13.2
2018-05-14T04:07:17.931Z,13.2
2018-05-14T04:08:08.268Z,13.3
2018-05-14T04:08:58.047Z,13.3
2018-05-14T04:09:48.394Z,13.3
2018-05-14T04:10:38.459Z,13.4
2018-05-14T04:11:28.244Z,13.4
2018-05-14T04:12:18.703Z,13.4
2018-05-14T04:13:08.639Z,13.4
2018-05-14T04:13:58.424Z,13.5
2018-05-14T04:14:48.772Z,13.5
2018-05-14T04:15:38.851Z,13.6
2018-05-14T04:16:29.193Z,13.6
2018-05-14T04:17:18.976Z,13.6
2018-05-14T04:18:09.023Z,13.8
2018-05-14T04:18:59.097Z,13.8
2018-05-14T04:19:49.152Z,13.8
2018-05-14T04:20:38.938Z,13.9
2018-05-14T04:21:29.014Z,13.9
2018-05-14T04:22:19.331Z,14
2018-05-14T04:23:08.846Z,14.1
2018-05-14T04:23:59.186Z,14.2
2018-05-14T04:24:49.532Z,14.3
2018-05-14T04:25:39.309Z,14.4
2018-05-14T04:26:29.375Z,14.6
2018-05-14T04:27:19.437Z,14.7
2018-05-14T04:28:09.776Z,14.9
2018-05-14T04:28:59.852Z,15
2018-05-14T04:29:49.893Z,15.2
2018-05-14T04:30:39.697Z,15.4
2018-05-14T04:31:29.196Z,15.5
2018-05-14T04:32:19.813Z,15.8
2018-05-14T04:33:09.873Z,15.9
2018-05-14T04:34:00.220Z,16.1
2018-05-14T04:34:49.719Z,16.3
2018-05-14T04:35:40.346Z,16.6
2018-05-14T04:36:30.128Z,16.8
2018-05-14T04:37:20.468Z,16.9
2018-05-14T04:38:10.529Z,17.1
2018-05-14T04:39:00.588Z,17.4
2018-05-14T04:39:50.685Z,17.6
2018-05-14T04:40:40.715Z,17.8
2018-05-14T04:41:30.777Z,17.9
2018-05-14T04:42:20.580Z,18.1
2018-05-14T04:43:10.892Z,18.3
2018-05-14T04:44:00.664Z,18.5
2018-05-14T04:44:51.016Z,18.6
2018-05-14T04:45:41.086Z,18.8
2018-05-14T04:46:31.137Z,18.9
2018-05-14T04:47:20.974Z,19.1
2018-05-14T04:48:11.285Z,19.2
2018-05-14T04:49:00.505Z,19.3
2018-05-14T04:49:51.152Z,19.4
2018-05-14T04:50:41.185Z,19.6
2018-05-14T04:51:31.026Z,19.7
2018-05-14T04:52:21.024Z,19.8
2018-05-14T04:53:11.647Z,19.9
2018-05-14T04:54:01.705Z,20.1
2018-05-14T04:54:51.522Z,20.1
2018-05-14T04:55:41.827Z,20.3
2018-05-14T04:56:31.915Z,20.4
2018-05-14T04:57:21.987Z,20.5
2018-05-14T04:58:12.103Z,20.6
2018-05-14T04:59:02.081Z,20.8
2018-05-14T04:59:52.156Z,20.8
2018-05-14T05:00:42.320Z,20.9
2018-05-14T05:01:31.729Z,21.1
2018-05-14T05:03:12.134Z,21.3
2018-05-14T05:04:01.895Z,21.4
2018-05-14T05:04:52.564Z,21.6
2018-05-14T05:05:42.605Z,21.8
2018-05-14T05:06:32.366Z,21.9
2018-05-14T05:07:22.421Z,22.1
2018-05-14T05:08:12.232Z,22.2
2018-05-14T05:09:02.833Z,22.4
2018-05-14T05:09:52.897Z,22.5
2018-05-14T05:10:42.703Z,22.6
2018-05-14T05:11:33.371Z,22.8
2018-05-14T05:12:23.111Z,22.9
2018-05-14T05:13:13.173Z,23
2018-05-14T05:14:02.962Z,23.1
2018-05-14T05:14:53.019Z,23.1
2018-05-14T05:15:43.062Z,23.2
2018-05-14T05:16:33.132Z,23.2
2018-05-14T05:17:22.901Z,23.3
2018-05-14T05:18:13.253Z,23.3
2018-05-14T05:19:03.686Z,23.3
2018-05-14T05:19:53.653Z,23.4
2018-05-14T05:20:43.720Z,23.4
2018-05-14T05:21:32.442Z,23.4
2018-05-14T05:22:22.887Z,23.4
2018-05-14T05:23:13.908Z,23.4
2018-05-14T05:24:03.956Z,23.5
2018-05-14T05:24:53.732Z,23.6
2018-05-14T05:25:44.123Z,23.6
2018-05-14T05:26:33.872Z,23.6
2018-05-14T05:27:23.947Z,23.6
2018-05-14T05:28:14.315Z,23.7
2018-05-14T05:29:04.049Z,23.7
2018-05-14T05:29:54.385Z,23.7
2018-05-14T05:30:44.443Z,23.8
2018-05-14T05:31:34.455Z,23.8
2018-05-14T05:32:24.574Z,23.8
2018-05-14T05:33:14.360Z,23.8
2018-05-14T05:34:04.804Z,23.8
2018-05-14T05:34:54.762Z,23.8
2018-05-14T05:35:44.913Z,23.8
2018-05-14T05:36:34.898Z,23.8
2018-05-14T05:37:24.953Z,23.9
2018-05-14T05:38:14.712Z,23.9
2018-05-14T05:39:05.105Z,24
2018-05-14T05:39:54.845Z,24
2018-05-14T05:40:44.911Z,24
2018-05-14T05:41:34.705Z,24
2018-05-14T05:42:25.055Z,24.1
2018-05-14T05:43:15.118Z,24.1
2018-05-14T05:44:05.167Z,24.2
2018-05-14T05:44:55.243Z,24.3
2018-05-14T05:45:45.592Z,24.3
2018-05-14T05:46:35.623Z,24.4
2018-05-14T05:47:25.687Z,24.4
2018-05-14T05:48:15.463Z,24.6
2018-05-14T05:49:05.810Z,24.6
2018-05-14T05:49:55.629Z,24.7
2018-05-14T05:50:45.383Z,24.8
2018-05-14T05:51:36.023Z,24.9
2018-05-14T05:52:26.005Z,25
2018-05-14T05:53:15.849Z,25.1
2018-05-14T05:54:06.215Z,25.1
2018-05-14T05:54:55.978Z,25.2
2018-05-14T05:55:46.313Z,25.2
2018-05-14T05:56:36.126Z,25.3
2018-05-14T05:57:26.450Z,25.3
2018-05-14T05:58:16.240Z,25.4
2018-05-14T05:59:05.732Z,25.4
2018-05-14T05:59:56.634Z,25.5
2018-05-14T06:00:46.432Z,25.5
2018-05-14T06:01:36.833Z,25.6
2018-05-14T06:02:26.823Z,25.6
2018-05-14T06:03:16.314Z,25.7
2018-05-14T06:04:06.953Z,25.7
2018-05-14T06:04:57.017Z,25.8
2018-05-14T06:05:47.069Z,25.8
2018-05-14T06:06:36.567Z,25.9
2018-05-14T06:07:26.914Z,25.9
2018-05-14T06:08:17.257Z,26
2018-05-14T06:09:07.328Z,26.1
2018-05-14T06:09:57.119Z,26.1
2018-05-14T06:10:46.962Z,26.2
2018-05-14T06:11:37.528Z,26.3
2018-05-14T06:12:27.292Z,26.4
2018-05-14T06:13:17.626Z,26.4
2018-05-14T06:14:07.427Z,26.5
2018-05-14T06:14:57.776Z,26.6
2018-05-14T06:15:47.857Z,26.7
2018-05-14T06:16:37.883Z,26.8
2018-05-14T06:17:27.370Z,27.1
2018-05-14T06:18:18.016Z,27.5
2018-05-14T06:19:08.065Z,28.3
2018-05-14T06:19:58.157Z,29.7
2018-05-14T06:20:48.207Z,31.5
2018-05-14T06:21:38.279Z,33.5
2018-05-14T06:22:28.693Z,35.5
2018-05-14T06:23:18.381Z,37.3
2018-05-14T06:24:08.180Z,38.5
2018-05-14T06:24:58.511Z,39.3
2018-05-14T06:25:48.562Z,39.8
2018-05-14T06:26:38.630Z,40.1
2018-05-14T06:27:28.411Z,40.3
2018-05-14T06:28:18.781Z,40.6
2018-05-14T06:29:08.827Z,40.9
2018-05-14T06:29:58.911Z,41.4
2018-05-14T06:30:48.712Z,41.9
2018-05-14T06:31:39.239Z,42.3
2018-05-14T06:32:28.728Z,42.9
2018-05-14T06:33:19.169Z,43.9
2018-05-14T06:34:09.239Z,44.9
2018-05-14T06:34:59.389Z,46.1
2018-05-14T06:35:49.804Z,47.3
2018-05-14T06:36:39.375Z,48.4
2018-05-14T06:37:29.161Z,49.4
2018-05-14T06:38:19.505Z,50.4
2018-05-14T06:39:09.029Z,51.4
2018-05-14T06:39:59.634Z,52.3
2018-05-14T06:40:49.709Z,53.3
2018-05-14T06:41:39.490Z,54.1
2018-05-14T06:42:29.541Z,54.8
2018-05-14T06:43:19.596Z,55.5
2018-05-14T06:44:09.962Z,56.3
2018-05-14T06:44:59.750Z,57
2018-05-14T06:46:39.853Z,58.5
2018-05-14T06:47:29.933Z,59.3
2018-05-14T06:48:19.992Z,60
2018-05-14T06:49:10.365Z,60.6
2018-05-14T06:50:00.460Z,62.3
2018-05-14T06:50:50.176Z,63.3
2018-05-14T06:51:40.247Z,60.3
2018-05-14T06:52:30.024Z,55.9
2018-05-14T06:53:20.022Z,49.1
2018-05-14T06:54:10.467Z,45
2018-05-14T06:55:00.860Z,43.1
2018-05-14T06:55:50.843Z,42.2
2018-05-14T06:56:40.992Z,41.9
2018-05-14T06:57:30.393Z,42.1
2018-05-14T06:58:21.023Z,42.9
2018-05-14T06:59:11.086Z,44.1
2018-05-14T07:00:01.155Z,45.3
2018-05-14T07:00:50.935Z,46.7
2018-05-14T07:01:40.711Z,48.1
2018-05-14T07:02:31.044Z,49.6
2018-05-14T07:03:21.394Z,51
2018-05-14T07:04:11.436Z,52.3
2018-05-14T07:05:01.228Z,53.6
2018-05-14T07:05:51.627Z,54.8
2018-05-14T07:06:41.359Z,56.1
2018-05-14T07:07:31.719Z,57.1
2018-05-14T07:08:21.469Z,58.2
2018-05-14T07:09:11.252Z,59.2
2018-05-14T07:10:01.875Z,60.3
2018-05-14T07:10:51.946Z,62.5
2018-05-14T07:11:41.454Z,63.4
2018-05-14T07:12:31.807Z,60.4
2018-05-14T07:13:21.869Z,57.6
2018-05-14T07:14:12.206Z,54.4
2018-05-14T07:15:02.295Z,51.4
2018-05-14T07:15:52.356Z,49.8
2018-05-14T07:16:42.660Z,49.6
2018-05-14T07:17:32.479Z,50.2
2018-05-14T07:18:22.511Z,51.4
2018-05-14T07:19:12.746Z,52.8
2018-05-14T07:20:02.091Z,54.2
2018-05-14T07:20:52.144Z,55.6
2018-05-14T07:21:42.492Z,57.1
2018-05-14T07:22:32.828Z,58.5
2018-05-14T07:23:22.917Z,59.9
2018-05-14T07:24:12.953Z,62.5
2018-05-14T07:25:02.759Z,63.3
2018-05-14T07:25:53.078Z,62.3
2018-05-14T07:26:42.865Z,61.6
2018-05-14T07:27:32.936Z,59.3
2018-05-14T07:28:22.707Z,56.1
2018-05-14T07:29:13.356Z,54.1
2018-05-14T07:30:03.224Z,54.6
2018-05-14T07:30:53.178Z,56.2
2018-05-14T07:31:43.258Z,57.6
2018-05-14T07:32:33.097Z,58.4
2018-05-14T07:33:23.462Z,58.5
2018-05-14T07:34:13.417Z,58.1
2018-05-14T07:35:03.499Z,57.3
2018-05-14T07:35:53.555Z,56.9
2018-05-14T07:36:43.615Z,57.1
2018-05-14T07:37:33.973Z,57.5
2018-05-14T07:38:23.454Z,58
2018-05-14T07:39:14.098Z,58.4
2018-05-14T07:40:03.582Z,58.7
2018-05-14T07:40:54.228Z,58.7
2018-05-14T07:41:44.010Z,58.7
2018-05-14T07:42:34.331Z,58.9
2018-05-14T07:43:24.396Z,59.1
2018-05-14T07:44:14.185Z,59.1
2018-05-14T07:45:04.516Z,58.4
2018-05-14T07:45:54.568Z,58.4
2018-05-14T07:46:44.647Z,58.9
2018-05-14T07:47:34.439Z,59.2
2018-05-14T07:48:24.776Z,58.9
2018-05-14T07:49:14.822Z,58.6
2018-05-14T07:50:04.891Z,59.1
2018-05-14T07:50:54.948Z,59.4
2018-05-14T07:51:44.777Z,59.2
2018-05-14T07:52:34.796Z,59.3
2018-05-14T07:53:25.144Z,59.6
2018-05-14T07:54:15.200Z,60.2
2018-05-14T07:55:04.982Z,60.3
2018-05-14T07:55:55.355Z,60
2018-05-14T07:56:44.940Z,59.4
2018-05-14T07:57:35.209Z,59.2
2018-05-14T07:58:25.234Z,59.4
2018-05-14T07:59:15.316Z,59.6
2018-05-14T08:00:05.655Z,60.1
2018-05-14T08:00:54.871Z,60.4
2018-05-14T08:01:45.762Z,59.8
2018-05-14T08:03:25.903Z,57.3
2018-05-14T08:04:15.958Z,56.3
2018-05-14T08:05:05.737Z,55.6
2018-05-14T08:05:55.794Z,55.4
2018-05-14T08:06:46.137Z,56.2
2018-05-14T08:07:35.932Z,57.5
2018-05-14T08:08:26.282Z,58.7
2018-05-14T08:09:16.097Z,59.6
2018-05-14T08:10:06.139Z,60.1
2018-05-14T08:10:56.191Z,60.3
2018-05-14T08:11:46.447Z,60.3
2018-05-14T08:12:36.303Z,60.4
2018-05-14T08:13:26.360Z,60.6
2018-05-14T08:14:16.704Z,60.9
2018-05-14T08:15:06.503Z,61.4
2018-05-14T08:15:56.268Z,61.7
2018-05-14T08:16:46.907Z,62
2018-05-14T08:17:36.975Z,62.4
2018-05-14T08:18:26.760Z,62.8
2018-05-14T08:19:17.071Z,63
2018-05-14T08:20:07.185Z,63.2
2018-05-14T08:20:56.671Z,63.4
2018-05-14T08:21:47.371Z,63.8
2018-05-14T08:22:36.816Z,64.2
2018-05-14T08:23:27.857Z,64.6
2018-05-14T08:24:17.450Z,64.9
2018-05-14T08:25:07.504Z,65.3
2018-05-14T08:25:57.121Z,65.8
2018-05-14T08:26:47.363Z,66.2
2018-05-14T08:27:37.710Z,66.6
2018-05-14T08:28:27.903Z,66.9
2018-05-14T08:29:17.959Z,66.3
2018-05-14T08:30:07.957Z,64.8
2018-05-14T08:30:58.227Z,63.3
2018-05-14T08:31:47.867Z,62
2018-05-14T08:32:37.830Z,61
2018-05-14T08:33:27.858Z,60.4
2018-05-14T08:34:18.062Z,60.3
2018-05-14T08:35:07.999Z,60
2018-05-14T08:35:58.442Z,60.2
2018-05-14T08:36:47.847Z,60.9
2018-05-14T08:37:38.342Z,61.9
2018-05-14T08:38:28.737Z,63
2018-05-14T08:39:18.814Z,64
2018-05-14T08:40:08.398Z,64.7
2018-05-14T08:40:58.499Z,65.1
2018-05-14T08:41:48.784Z,65.5
2018-05-14T08:42:38.276Z,65.6
2018-05-14T08:43:28.921Z,65.6
2018-05-14T08:44:18.944Z,65.6
2018-05-14T08:45:08.752Z,66.1
2018-05-14T08:45:59.203Z,65.9
2018-05-14T08:46:48.626Z,64.6
2018-05-14T08:47:38.937Z,62.9
2018-05-14T08:48:29.275Z,61.3
2018-05-14T08:49:19.057Z,60.2
2018-05-14T08:50:09.066Z,59.6
2018-05-14T08:50:58.630Z,59.2
2018-05-14T08:51:49.543Z,58.9
2018-05-14T08:52:39.066Z,58.5
2018-05-14T08:53:29.655Z,58
2018-05-14T08:54:19.806Z,57.4
2018-05-14T08:55:09.797Z,56.7
2018-05-14T08:55:59.551Z,56.3
2018-05-14T08:56:49.920Z,55.8
2018-05-14T08:57:40.311Z,55.6
2018-05-14T08:58:30.101Z,55.3
2018-05-14T08:59:20.087Z,55.3
2018-05-14T09:00:09.863Z,56.1
2018-05-14T09:01:00.217Z,57.3
2018-05-14T09:01:50.289Z,57.9
2018-05-14T09:02:40.065Z,58.1
2018-05-14T09:03:30.410Z,57.6
2018-05-14T09:04:19.997Z,56.9
2018-05-14T09:05:09.771Z,56
2018-05-14T09:06:00.591Z,55.3
2018-05-14T09:06:50.085Z,54.7
2018-05-14T09:07:40.732Z,54.4
2018-05-14T09:08:30.522Z,54.9
2018-05-14T09:09:20.863Z,57.1
2018-05-14T09:10:10.634Z,59.2
2018-05-14T09:11:00.990Z,60.6
2018-05-14T09:11:51.022Z,61.2
2018-05-14T09:12:40.811Z,60.4
2018-05-14T09:13:31.167Z,58.4
2018-05-14T09:14:21.215Z,56.7
2018-05-14T09:15:11.284Z,55.8
2018-05-14T09:16:01.354Z,56.8
2018-05-14T09:16:50.842Z,59.4
2018-05-14T09:17:40.900Z,61.8
2018-05-14T09:18:31.527Z,62.7
2018-05-14T09:19:21.761Z,61.6
2018-05-14T09:20:11.081Z,59.4
2018-05-14T09:21:01.727Z,57.9
2018-05-14T09:21:51.229Z,56.9
2018-05-14T09:22:41.835Z,57
2018-05-14T09:23:31.653Z,59.1
2018-05-14T09:24:21.975Z,61.6
2018-05-14T09:25:12.028Z,61.7
2018-05-14T09:26:02.109Z,60.6
2018-05-14T09:26:51.885Z,59.1
2018-05-14T09:27:42.226Z,58.8
2018-05-14T09:28:32.288Z,59.9
2018-05-14T09:29:22.355Z,60.7
2018-05-14T09:30:12.155Z,61.6
2018-05-14T09:31:02.478Z,61.8
2018-05-14T09:31:52.544Z,60.7
2018-05-14T09:32:42.329Z,59.2
2018-05-14T09:33:32.655Z,57.6
2018-05-14T09:34:22.731Z,56.4
2018-05-14T09:35:12.530Z,55.6
2018-05-14T09:36:02.867Z,55.2
2018-05-14T09:36:52.146Z,54.9
2018-05-14T09:37:42.983Z,54.5
2018-05-14T09:38:33.062Z,53.9
2018-05-14T09:39:23.173Z,53.3
2018-05-14T09:40:13.199Z,52.7
2018-05-14T09:41:03.278Z,52.3
2018-05-14T09:41:53.027Z,52
2018-05-14T09:42:43.367Z,51.8
2018-05-14T09:43:33.429Z,51.6
2018-05-14T09:44:23.207Z,51.3
2018-05-14T09:45:13.566Z,51
2018-05-14T09:46:03.356Z,50.7
2018-05-14T09:46:53.132Z,50.4
2018-05-14T09:47:43.735Z,50
2018-05-14T09:48:33.528Z,49.6
2018-05-14T09:49:23.869Z,49.3
2018-05-14T09:50:13.945Z,48.9
2018-05-14T09:51:04.019Z,48.6
2018-05-14T09:51:54.069Z,48.4
2018-05-14T09:52:43.830Z,48.2
2018-05-14T09:53:33.984Z,47.9
2018-05-14T09:54:24.262Z,85
2018-05-14T09:55:14.300Z,50.9
2018-05-14T09:56:03.529Z,47.3
2018-05-14T09:56:53.871Z,46.8
2018-05-14T09:57:44.198Z,46.3
2018-05-14T09:58:34.582Z,45.7
2018-05-14T09:59:23.850Z,45.2
2018-05-14T10:00:14.702Z,44.8
2018-05-14T10:01:03.729Z,44.2
2018-05-14T10:01:53.979Z,43.6
2018-05-14T10:02:44.597Z,43
2018-05-14T10:03:34.852Z,42.3
2018-05-14T10:04:24.736Z,41.6
2018-05-14T10:05:15.071Z,40.8
2018-05-14T10:06:04.564Z,40.1
2018-05-14T10:06:54.324Z,39.4
2018-05-14T10:07:45.261Z,38.8
2018-05-14T10:08:35.313Z,38.3
2018-05-14T10:09:25.411Z,37.8
2018-05-14T10:10:15.176Z,37.4
2018-05-14T10:11:05.221Z,37
2018-05-14T10:11:55.279Z,36.7
2018-05-14T10:12:45.623Z,36.4
2018-05-14T10:13:35.700Z,36.2
2018-05-14T10:14:25.770Z,36
2018-05-14T10:15:15.578Z,35.9
2018-05-14T10:16:05.891Z,35.9
2018-05-14T10:16:55.935Z,35.8
2018-05-14T10:17:46.098Z,35.8
2018-05-14T10:18:36.057Z,35.8
2018-05-14T10:19:26.137Z,35.8
2018-05-14T10:20:16.203Z,35.9
2018-05-14T10:21:05.975Z,35.9
2018-05-14T10:21:56.332Z,35.8
2018-05-14T10:22:46.371Z,35.8
2018-05-14T10:23:35.866Z,35.9
2018-05-14T10:24:26.570Z,35.9
2018-05-14T10:25:16.290Z,35.8
2018-05-14T10:26:06.639Z,35.8
2018-05-14T10:26:56.703Z,35.8
2018-05-14T10:27:46.476Z,35.8
2018-05-14T10:28:36.815Z,35.8
2018-05-14T10:29:27.012Z,35.9
2018-05-14T10:30:16.667Z,35.9
2018-05-14T10:31:06.711Z,35.9
2018-05-14T10:31:56.934Z,35.9
2018-05-14T10:32:46.855Z,35.8
2018-05-14T10:33:36.919Z,35.8
2018-05-14T10:34:27.276Z,35.8
2018-05-14T10:35:17.038Z,35.7
2018-05-14T10:36:07.092Z,35.6
2018-05-14T10:36:56.881Z,35.6
2018-05-14T10:37:47.223Z,35.5
2018-05-14T10:38:37.564Z,35.4
2018-05-14T10:39:27.682Z,35.3
2018-05-14T10:40:17.145Z,35.3
2018-05-14T10:41:07.763Z,35.2
2018-05-14T10:41:57.559Z,35.1
2018-05-14T10:42:47.897Z,35
2018-05-14T10:43:37.691Z,34.9
2018-05-14T10:44:28.040Z,34.9
2018-05-14T10:45:18.055Z,34.8
2018-05-14T10:46:08.128Z,34.8
2018-05-14T10:46:57.620Z,34.7
2018-05-14T10:47:48.281Z,34.5
2018-05-14T10:48:38.323Z,34.4
2018-05-14T10:49:28.388Z,34.3
2018-05-14T10:50:18.464Z,34.3
2018-05-14T10:51:08.252Z,34.2
2018-05-14T10:51:58.568Z,34.1
2018-05-14T10:52:48.841Z,34
2018-05-14T10:53:38.233Z,33.9
2018-05-14T10:54:28.188Z,33.9
2018-05-14T10:55:18.251Z,33.8
2018-05-14T10:56:08.359Z,33.7
2018-05-14T10:56:58.948Z,33.6
2018-05-14T10:57:48.763Z,33.5
2018-05-14T10:58:39.329Z,33.4
2018-05-14T10:59:29.160Z,33.3
2018-05-14T11:00:18.919Z,33.3
2018-05-14T11:01:09.292Z,33.1
2018-05-14T11:01:59.030Z,33
2018-05-14T11:02:49.174Z,32.9
2018-05-14T11:03:39.467Z,32.9
2018-05-14T11:04:28.935Z,32.8
2018-05-14T11:05:19.581Z,32.8
2018-05-14T11:06:09.374Z,32.6
2018-05-14T11:06:59.427Z,32.6
2018-05-14T11:07:49.483Z,32.4
2018-05-14T11:08:39.835Z,32.4
2018-05-14T11:09:29.893Z,32.3
2018-05-14T11:10:19.663Z,32.1